createdAt,value
2019-01-18T00:00:57.227Z,1010.15
2019-01-18T00:01:57.226Z,1010.11
2019-01-18T00:03:04.836Z,1010.08
2019-01-18T00:03:57.216Z,1010.11
2019-01-18T00:05:04.944Z,1010.16
2019-01-18T00:05:57.194Z,1010.13
2019-01-18T00:07:04.757Z,1010.11
2019-01-18T00:07:57.180Z,1010.11
2019-01-18T00:10:07.986Z,1010.18
2019-01-18T00:11:15.529Z,1010.19
2019-01-18T00:12:07.880Z,1010.19
2019-01-18T00:14:17.798Z,1010.20
2019-01-18T00:15:17.705Z,1010.29
2019-01-18T00:16:25.183Z,1010.23
2019-01-18T00:17:17.619Z,1010.31
2019-01-18T00:18:25.344Z,1010.31
2019-01-18T00:19:17.589Z,1010.26
2019-01-18T00:20:25.212Z,1010.26
2019-01-18T00:21:17.583Z,1010.34
2019-01-18T00:22:26.524Z,1010.29
2019-01-18T00:23:17.561Z,1010.35
2019-01-18T00:25:27.335Z,1010.28
2019-01-18T00:26:37.156Z,1010.33
2019-01-18T00:27:27.270Z,1010.34
2019-01-18T00:28:34.825Z,1010.41
2019-01-18T00:29:29.684Z,1010.40
2019-01-18T00:30:34.814Z,1010.44
2019-01-18T00:31:27.249Z,1010.39
2019-01-18T00:32:34.762Z,1010.33
2019-01-18T00:33:27.209Z,1010.37
2019-01-18T00:34:34.768Z,1010.38
2019-01-18T00:35:27.202Z,1010.47
2019-01-18T00:36:34.777Z,1010.41
2019-01-18T00:37:27.176Z,1010.36
2019-01-18T00:38:34.796Z,1010.38
2019-01-18T00:39:27.164Z,1010.37
2019-01-18T00:40:34.725Z,1010.48
2019-01-18T00:41:27.117Z,1010.39
2019-01-18T00:42:34.673Z,1010.47
2019-01-18T00:43:27.066Z,1010.45
2019-01-18T00:44:34.641Z,1010.47
2019-01-18T00:45:27.073Z,1010.51
2019-01-18T00:46:27.026Z,1010.46
2019-01-18T00:47:27.065Z,1010.45
2019-01-18T00:48:27.048Z,1010.45
2019-01-18T00:49:27.000Z,1010.47
2019-01-18T00:50:27.017Z,1010.59
2019-01-18T00:51:26.978Z,1010.54
2019-01-18T00:52:26.993Z,1010.60
2019-01-18T00:53:27.013Z,1010.57
2019-01-18T00:54:26.953Z,1010.63
2019-01-18T00:55:26.980Z,1010.67
2019-01-18T00:56:26.963Z,1010.62
2019-01-18T00:57:26.939Z,1010.67
2019-01-18T00:58:26.968Z,1010.68
2019-01-18T00:59:26.911Z,1010.71
2019-01-18T01:00:26.931Z,1010.76
2019-01-18T01:01:26.875Z,1010.76
2019-01-18T01:02:26.891Z,1010.72
2019-01-18T01:03:26.899Z,1010.77
2019-01-18T01:04:26.900Z,1010.79
2019-01-18T01:05:26.896Z,1010.81
2019-01-18T01:06:26.824Z,1010.80
2019-01-18T01:07:26.832Z,1010.87
2019-01-18T01:08:26.834Z,1010.82
2019-01-18T01:09:26.826Z,1010.91
2019-01-18T01:10:26.801Z,1010.87
2019-01-18T01:11:26.836Z,1010.91
2019-01-18T01:12:26.877Z,1011.01
2019-01-18T01:13:26.765Z,1011.03
2019-01-18T01:14:26.731Z,1011.05
2019-01-18T01:15:26.716Z,1011.01
2019-01-18T01:16:26.729Z,1011.06
2019-01-18T01:17:26.715Z,1011.03
2019-01-18T01:18:41.213Z,1011.06
2019-01-18T01:19:26.682Z,1011.02
2019-01-18T01:20:26.670Z,1011.12
2019-01-18T01:21:26.706Z,1011.14
2019-01-18T01:22:26.650Z,1011.05
2019-01-18T01:24:35.697Z,1011.03
2019-01-18T01:25:36.080Z,1011.12
2019-01-18T01:26:35.455Z,1011.12
2019-01-18T01:27:35.388Z,1011.18
2019-01-18T01:28:35.406Z,1011.12
2019-01-18T01:29:35.381Z,1011.13
2019-01-18T01:30:35.359Z,1011.12
2019-01-18T01:31:35.379Z,1011.13
2019-01-18T01:32:35.393Z,1011.14
2019-01-18T01:33:35.346Z,1011.16
2019-01-18T01:34:35.378Z,1011.18
2019-01-18T01:35:35.313Z,1011.24
2019-01-18T01:36:35.292Z,1011.19
2019-01-18T01:37:35.337Z,1011.26
2019-01-18T01:38:35.274Z,1011.33
2019-01-18T01:39:35.258Z,1011.35
2019-01-18T01:40:35.253Z,1011.42
2019-01-18T01:41:35.243Z,1011.40
2019-01-18T01:42:35.247Z,1011.38
2019-01-18T01:43:35.219Z,1011.42
2019-01-18T01:44:35.231Z,1011.46
2019-01-18T01:45:35.198Z,1011.47
2019-01-18T01:46:35.190Z,1011.50
2019-01-18T01:47:35.224Z,1011.51
2019-01-18T01:48:35.172Z,1011.57
2019-01-18T01:49:35.158Z,1011.57
2019-01-18T01:50:35.152Z,1011.51
2019-01-18T01:51:35.147Z,1011.58
2019-01-18T01:52:35.129Z,1011.63
2019-01-18T01:53:35.171Z,1011.61
2019-01-18T01:54:35.110Z,1011.68
2019-01-18T01:55:35.101Z,1011.68
2019-01-18T01:56:35.090Z,1011.61
2019-01-18T01:57:35.077Z,1011.65
2019-01-18T01:58:35.092Z,1011.66
2019-01-18T01:59:35.055Z,1011.67
2019-01-18T02:00:35.045Z,1011.70
2019-01-18T02:01:35.038Z,1011.70
2019-01-18T02:02:35.047Z,1011.74
2019-01-18T02:03:35.041Z,1011.71
2019-01-18T02:04:35.019Z,1011.76
2019-01-18T02:05:34.995Z,1011.79
2019-01-18T02:06:34.987Z,1011.77
2019-01-18T02:07:34.977Z,1011.77
2019-01-18T02:08:34.984Z,1011.80
2019-01-18T02:09:34.960Z,1011.84
2019-01-18T02:10:34.948Z,1011.83
2019-01-18T02:11:34.964Z,1011.87
2019-01-18T02:12:34.927Z,1011.86
2019-01-18T02:13:34.932Z,1011.85
2019-01-18T02:14:34.903Z,1011.88
2019-01-18T02:15:34.895Z,1011.90
2019-01-18T02:16:34.886Z,1011.91
2019-01-18T02:17:34.871Z,1011.93
2019-01-18T02:18:34.889Z,1011.95
2019-01-18T02:19:34.856Z,1011.98
2019-01-18T02:20:34.849Z,1011.96
2019-01-18T02:21:34.864Z,1011.92
2019-01-18T02:22:34.822Z,1011.99
2019-01-18T02:23:34.812Z,1011.97
2019-01-18T02:24:34.826Z,1011.98
2019-01-18T02:25:34.803Z,1011.99
2019-01-18T02:26:34.784Z,1012.06
2019-01-18T02:27:34.777Z,1012.03
2019-01-18T02:28:34.763Z,1012.02
2019-01-18T02:29:34.799Z,1012.12
2019-01-18T02:30:34.758Z,1012.12
2019-01-18T02:31:34.733Z,1012.09
2019-01-18T02:32:34.720Z,1012.20
2019-01-18T02:33:34.712Z,1012.15
2019-01-18T02:34:34.754Z,1012.13
2019-01-18T02:35:34.712Z,1012.13
2019-01-18T02:36:34.683Z,1012.17
2019-01-18T02:37:34.666Z,1012.16
2019-01-18T02:38:34.657Z,1012.22
2019-01-18T02:39:34.664Z,1012.23
2019-01-18T02:40:34.678Z,1012.24
2019-01-18T02:41:34.625Z,1012.34
2019-01-18T02:42:34.626Z,1012.30
2019-01-18T02:43:34.611Z,1012.29
2019-01-18T02:44:34.673Z,1012.36
2019-01-18T02:45:34.617Z,1012.34
2019-01-18T02:46:34.668Z,1012.31
2019-01-18T02:47:34.589Z,1012.36
2019-01-18T02:48:34.573Z,1012.34
2019-01-18T02:49:34.589Z,1012.36
2019-01-18T02:50:34.566Z,1012.35
2019-01-18T02:51:34.542Z,1012.40
2019-01-18T02:52:34.518Z,1012.43
2019-01-18T02:53:34.510Z,1012.42
2019-01-18T02:54:34.626Z,1012.37
2019-01-18T02:55:34.610Z,1012.39
2019-01-18T02:56:34.534Z,1012.39
2019-01-18T02:57:34.472Z,1012.39
2019-01-18T02:58:34.467Z,1012.46
2019-01-18T02:59:34.456Z,1012.46
2019-01-18T03:00:34.480Z,1012.47
2019-01-18T03:01:34.463Z,1012.44
2019-01-18T03:02:34.414Z,1012.55
2019-01-18T03:03:34.409Z,1012.60
2019-01-18T03:04:34.400Z,1012.61
2019-01-18T03:05:34.383Z,1012.59
2019-01-18T03:06:34.398Z,1012.63
2019-01-18T03:07:34.374Z,1012.70
2019-01-18T03:08:34.353Z,1012.76
2019-01-18T03:09:34.344Z,1012.78
2019-01-18T03:10:34.335Z,1012.80
2019-01-18T03:11:34.408Z,1012.71
2019-01-18T03:12:34.314Z,1012.72
2019-01-18T03:13:34.302Z,1012.78
2019-01-18T03:14:34.307Z,1012.80
2019-01-18T03:15:34.319Z,1012.82
2019-01-18T03:16:34.262Z,1012.83
2019-01-18T03:17:34.296Z,1012.87
2019-01-18T03:18:34.248Z,1012.84
2019-01-18T03:19:34.243Z,1012.80
2019-01-18T03:20:34.228Z,1012.82
2019-01-18T03:21:34.273Z,1012.83
2019-01-18T03:22:34.231Z,1012.91
2019-01-18T03:23:34.211Z,1012.84
2019-01-18T03:24:34.185Z,1012.91
2019-01-18T03:25:34.178Z,1012.92
2019-01-18T03:26:34.168Z,1012.98
2019-01-18T03:27:34.198Z,1013.02
2019-01-18T03:28:34.151Z,1012.96
2019-01-18T03:29:34.139Z,1013.03
2019-01-18T03:30:34.125Z,1013.02
2019-01-18T03:31:34.132Z,1013.02
2019-01-18T03:32:34.106Z,1013.05
2019-01-18T03:33:34.110Z,1013.04
2019-01-18T03:34:34.080Z,1013.07
2019-01-18T03:35:34.071Z,1013.13
2019-01-18T03:36:34.074Z,1013.09
2019-01-18T03:37:34.048Z,1013.17
2019-01-18T03:38:34.073Z,1013.15
2019-01-18T03:39:34.030Z,1013.20
2019-01-18T03:40:34.038Z,1013.19
2019-01-18T03:41:34.018Z,1013.27
2019-01-18T03:42:33.998Z,1013.25
2019-01-18T03:43:34.010Z,1013.25
2019-01-18T03:44:33.983Z,1013.25
2019-01-18T03:45:33.981Z,1013.31
2019-01-18T03:46:33.962Z,1013.31
2019-01-18T03:47:33.952Z,1013.28
2019-01-18T03:48:33.958Z,1013.32
2019-01-18T03:49:33.938Z,1013.33
2019-01-18T03:50:33.920Z,1013.32
2019-01-18T03:51:33.906Z,1013.40
2019-01-18T03:52:33.904Z,1013.45
2019-01-18T03:53:33.906Z,1013.47
2019-01-18T03:54:33.879Z,1013.44
2019-01-18T03:55:33.863Z,1013.44
2019-01-18T03:56:33.855Z,1013.47
2019-01-18T03:57:33.844Z,1013.53
2019-01-18T03:58:33.856Z,1013.50
2019-01-18T03:59:33.839Z,1013.58
2019-01-18T04:00:33.822Z,1013.49
2019-01-18T04:01:33.802Z,1013.51
2019-01-18T04:02:33.792Z,1013.51
2019-01-18T04:03:33.797Z,1013.55
2019-01-18T04:04:33.792Z,1013.54
2019-01-18T04:05:33.761Z,1013.54
2019-01-18T04:06:33.754Z,1013.60
2019-01-18T04:07:33.737Z,1013.60
2019-01-18T04:08:33.754Z,1013.63
2019-01-18T04:09:33.734Z,1013.68
2019-01-18T04:10:33.704Z,1013.70
2019-01-18T04:11:33.698Z,1013.73
2019-01-18T04:12:33.685Z,1013.72
2019-01-18T04:13:33.720Z,1013.68
2019-01-18T04:14:33.669Z,1013.78
2019-01-18T04:15:33.657Z,1013.70
2019-01-18T04:16:33.646Z,1013.69
2019-01-18T04:17:33.635Z,1013.71
2019-01-18T04:18:33.659Z,1013.73
2019-01-18T04:19:33.611Z,1013.72
2019-01-18T04:20:33.601Z,1013.73
2019-01-18T04:21:33.625Z,1013.79
2019-01-18T04:22:33.603Z,1013.70
2019-01-18T04:23:33.598Z,1013.76
2019-01-18T04:24:33.559Z,1013.71
2019-01-18T04:25:33.547Z,1013.72
2019-01-18T04:26:33.541Z,1013.77
2019-01-18T04:27:33.544Z,1013.73
2019-01-18T04:28:33.545Z,1013.76
2019-01-18T04:29:33.508Z,1013.77
2019-01-18T04:30:33.900Z,1013.85
2019-01-18T04:31:33.508Z,1013.86
2019-01-18T04:32:33.478Z,1013.81
2019-01-18T04:33:33.471Z,1013.86
2019-01-18T04:34:33.475Z,1013.91
2019-01-18T04:35:33.447Z,1013.90
2019-01-18T04:36:33.462Z,1013.86
2019-01-18T04:37:33.434Z,1013.84
2019-01-18T04:38:33.415Z,1013.88
2019-01-18T04:39:33.449Z,1013.91
2019-01-18T04:40:33.408Z,1013.90
2019-01-18T04:41:33.387Z,1013.93
2019-01-18T04:42:33.375Z,1013.94
2019-01-18T04:43:33.362Z,1013.91
2019-01-18T04:44:33.382Z,1013.91
2019-01-18T04:45:33.381Z,1013.92
2019-01-18T04:46:33.334Z,1013.99
2019-01-18T04:47:33.322Z,1013.96
2019-01-18T04:48:33.317Z,1013.98
2019-01-18T04:49:33.359Z,1013.96
2019-01-18T04:50:33.309Z,1013.97
2019-01-18T04:51:33.281Z,1014.03
2019-01-18T04:52:33.270Z,1013.98
2019-01-18T04:53:33.254Z,1014.02
2019-01-18T04:54:33.272Z,1014.03
2019-01-18T04:55:33.260Z,1014.09
2019-01-18T04:56:33.226Z,1014.06
2019-01-18T04:57:33.214Z,1014.10
2019-01-18T04:58:33.216Z,1014.12
2019-01-18T04:59:33.191Z,1014.06
2019-01-18T05:00:40.132Z,1014.16
2019-01-18T05:01:34.195Z,1014.12
2019-01-18T05:02:33.164Z,1014.13
2019-01-18T05:03:33.169Z,1014.18
2019-01-18T05:04:33.142Z,1014.18
2019-01-18T05:05:33.131Z,1014.12
2019-01-18T05:06:34.654Z,1014.11
2019-01-18T05:07:33.113Z,1014.15
2019-01-18T05:08:33.098Z,1014.08
2019-01-18T05:09:33.088Z,1014.13
2019-01-18T05:10:33.077Z,1014.14
2019-01-18T05:11:33.109Z,1014.12
2019-01-18T05:12:33.056Z,1014.17
2019-01-18T05:13:33.054Z,1014.07
2019-01-18T05:14:33.037Z,1014.08
2019-01-18T05:15:33.026Z,1014.13
2019-01-18T05:16:33.019Z,1014.11
2019-01-18T05:17:33.032Z,1014.12
2019-01-18T05:18:32.994Z,1014.15
2019-01-18T05:19:32.982Z,1014.14
2019-01-18T05:20:32.985Z,1014.15
2019-01-18T05:21:32.965Z,1014.11
2019-01-18T05:22:32.978Z,1014.15
2019-01-18T05:23:32.945Z,1014.20
2019-01-18T05:24:32.952Z,1014.20
2019-01-18T05:25:32.922Z,1014.21
2019-01-18T05:26:32.917Z,1014.26
2019-01-18T05:27:32.933Z,1014.25
2019-01-18T05:28:33.105Z,1014.30
2019-01-18T05:29:32.926Z,1014.31
2019-01-18T05:30:32.872Z,1014.31
2019-01-18T05:31:32.909Z,1014.41
2019-01-18T05:32:32.857Z,1014.42
2019-01-18T05:33:32.865Z,1014.46
2019-01-18T05:34:32.831Z,1014.51
2019-01-18T05:35:32.823Z,1014.54
2019-01-18T05:36:32.816Z,1014.55
2019-01-18T05:37:32.811Z,1014.61
2019-01-18T05:38:32.824Z,1014.59
2019-01-18T05:39:32.779Z,1014.60
2019-01-18T05:40:32.772Z,1014.66
2019-01-18T05:41:32.762Z,1014.61
2019-01-18T05:42:32.752Z,1014.72
2019-01-18T05:43:32.762Z,1014.72
2019-01-18T05:44:32.730Z,1014.73
2019-01-18T05:45:32.716Z,1014.71
2019-01-18T05:46:32.720Z,1014.76
2019-01-18T05:47:32.702Z,1014.80
2019-01-18T05:48:32.709Z,1014.81
2019-01-18T05:49:32.680Z,1014.83
2019-01-18T05:50:32.669Z,1014.88
2019-01-18T05:51:32.655Z,1014.83
2019-01-18T05:52:32.646Z,1014.89
2019-01-18T05:53:32.631Z,1014.90
2019-01-18T05:54:32.644Z,1014.89
2019-01-18T05:55:32.723Z,1014.84
2019-01-18T05:56:32.601Z,1014.91
2019-01-18T05:57:32.589Z,1014.93
2019-01-18T05:58:32.590Z,1014.88
2019-01-18T05:59:32.592Z,1014.88
2019-01-18T06:00:32.578Z,1015.01
2019-01-18T06:01:32.548Z,1014.98
2019-01-18T06:02:32.540Z,1014.93
2019-01-18T06:03:32.532Z,1014.99
2019-01-18T06:04:32.517Z,1014.94
2019-01-18T06:05:32.527Z,1014.95
2019-01-18T06:06:32.512Z,1014.92
2019-01-18T06:07:32.484Z,1014.98
2019-01-18T06:08:32.487Z,1014.97
2019-01-18T06:09:32.461Z,1014.94
2019-01-18T06:10:32.473Z,1014.97
2019-01-18T06:11:32.443Z,1014.94
2019-01-18T06:12:32.432Z,1014.94
2019-01-18T06:13:32.422Z,1014.94
2019-01-18T06:14:32.412Z,1014.92
2019-01-18T06:15:32.421Z,1014.92
2019-01-18T06:16:32.390Z,1014.88
2019-01-18T06:17:32.484Z,1014.97
2019-01-18T06:18:32.398Z,1014.94
2019-01-18T06:19:32.374Z,1014.93
2019-01-18T06:20:32.387Z,1014.92
2019-01-18T06:21:32.338Z,1014.97
2019-01-18T06:22:32.341Z,1014.93
2019-01-18T06:23:32.340Z,1014.93
2019-01-18T06:24:32.329Z,1014.94
2019-01-18T06:25:32.337Z,1014.96
2019-01-18T06:26:32.316Z,1014.98
2019-01-18T06:27:32.282Z,1015.06
2019-01-18T06:28:32.269Z,1015.01
2019-01-18T06:29:32.252Z,1015.07
2019-01-18T06:30:32.250Z,1015.13
2019-01-18T06:31:32.272Z,1015.10
2019-01-18T06:32:32.261Z,1015.14
2019-01-18T06:33:32.384Z,1015.09
2019-01-18T06:34:32.220Z,1015.09
2019-01-18T06:35:32.212Z,1015.07
2019-01-18T06:36:32.226Z,1015.10
2019-01-18T06:37:32.174Z,1015.10
2019-01-18T06:38:32.167Z,1015.07
2019-01-18T06:39:32.175Z,1015.10
2019-01-18T06:40:32.146Z,1015.12
2019-01-18T06:41:32.138Z,1015.07
2019-01-18T06:42:32.186Z,1015.12
2019-01-18T06:43:32.110Z,1015.15
2019-01-18T06:44:32.105Z,1015.15
2019-01-18T06:45:32.091Z,1015.21
2019-01-18T06:46:32.093Z,1015.24
2019-01-18T06:47:32.126Z,1015.27
2019-01-18T06:48:32.111Z,1015.27
2019-01-18T06:49:32.055Z,1015.26
2019-01-18T06:50:32.050Z,1015.27
2019-01-18T06:51:32.074Z,1015.24
2019-01-18T06:52:32.022Z,1015.25
2019-01-18T06:53:32.006Z,1015.28
2019-01-18T06:54:31.998Z,1015.26
2019-01-18T06:55:32.030Z,1015.29
2019-01-18T06:56:32.565Z,1015.35
2019-01-18T06:57:31.970Z,1015.32
2019-01-18T06:58:31.978Z,1015.31
2019-01-18T06:59:31.939Z,1015.32
2019-01-18T07:00:31.928Z,1015.37
2019-01-18T07:01:31.924Z,1015.37
2019-01-18T07:02:31.933Z,1015.38
2019-01-18T07:03:31.948Z,1015.42
2019-01-18T07:04:31.885Z,1015.43
2019-01-18T07:05:31.948Z,1015.43
2019-01-18T07:06:31.895Z,1015.43
2019-01-18T07:07:31.850Z,1015.42
2019-01-18T07:08:31.862Z,1015.42
2019-01-18T07:09:31.842Z,1015.45
2019-01-18T07:10:31.831Z,1015.45
2019-01-18T07:11:31.836Z,1015.47
2019-01-18T07:12:31.845Z,1015.48
2019-01-18T07:13:31.800Z,1015.43
2019-01-18T07:14:31.784Z,1015.42
2019-01-18T07:15:31.773Z,1015.45
2019-01-18T07:16:31.797Z,1015.49
2019-01-18T07:17:31.757Z,1015.40
2019-01-18T07:18:31.744Z,1015.48
2019-01-18T07:19:31.730Z,1015.46
2019-01-18T07:20:31.722Z,1015.50
2019-01-18T07:21:31.750Z,1015.48
2019-01-18T07:22:31.725Z,1015.49
2019-01-18T07:23:31.687Z,1015.59
2019-01-18T07:24:31.685Z,1015.56
2019-01-18T07:25:31.683Z,1015.60
2019-01-18T07:26:31.670Z,1015.65
2019-01-18T07:28:40.430Z,1015.57
2019-01-18T07:29:40.486Z,1015.60
2019-01-18T07:30:40.432Z,1015.55
2019-01-18T07:31:40.369Z,1015.61
2019-01-18T07:32:40.424Z,1015.61
2019-01-18T07:33:40.389Z,1015.62
2019-01-18T07:34:40.385Z,1015.62
2019-01-18T07:35:40.353Z,1015.61
2019-01-18T07:36:40.313Z,1015.61
2019-01-18T07:37:40.339Z,1015.68
2019-01-18T07:38:40.355Z,1015.60
2019-01-18T07:39:40.298Z,1015.67
2019-01-18T07:40:40.339Z,1015.68
2019-01-18T07:41:40.276Z,1015.62
2019-01-18T07:42:40.271Z,1015.63
2019-01-18T07:43:40.352Z,1015.64
2019-01-18T07:44:40.225Z,1015.65
2019-01-18T07:45:40.230Z,1015.65
2019-01-18T07:46:40.202Z,1015.66
2019-01-18T07:47:40.204Z,1015.66
2019-01-18T07:48:40.207Z,1015.68
2019-01-18T07:49:40.174Z,1015.69
2019-01-18T07:50:40.164Z,1015.72
2019-01-18T07:51:40.163Z,1015.71
2019-01-18T07:52:40.149Z,1015.71
2019-01-18T07:53:40.128Z,1015.70
2019-01-18T07:54:40.142Z,1015.73
2019-01-18T07:55:40.111Z,1015.76
2019-01-18T07:56:40.100Z,1015.80
2019-01-18T07:57:40.091Z,1015.82
2019-01-18T07:58:40.082Z,1015.82
2019-01-18T07:59:40.111Z,1015.84
2019-01-18T08:00:40.072Z,1015.89
2019-01-18T08:01:40.047Z,1015.92
2019-01-18T08:02:40.037Z,1015.90
2019-01-18T08:03:40.028Z,1015.88
2019-01-18T08:04:40.018Z,1015.93
2019-01-18T08:05:40.037Z,1015.94
2019-01-18T08:06:39.995Z,1015.86
2019-01-18T08:07:39.984Z,1015.96
2019-01-18T08:08:39.983Z,1015.95
2019-01-18T08:09:39.965Z,1015.93
2019-01-18T08:10:39.995Z,1015.93
2019-01-18T08:11:39.942Z,1015.91
2019-01-18T08:12:39.931Z,1015.97
2019-01-18T08:13:39.918Z,1015.95
2019-01-18T08:14:39.920Z,1016.00
2019-01-18T08:15:39.920Z,1015.97
2019-01-18T08:16:39.889Z,1015.98
2019-01-18T08:17:39.910Z,1015.99
2019-01-18T08:18:39.870Z,1016.04
2019-01-18T08:19:39.867Z,1016.01
2019-01-18T08:20:39.871Z,1016.09
2019-01-18T08:21:39.836Z,1016.08
2019-01-18T08:22:39.827Z,1016.04
2019-01-18T08:23:39.858Z,1016.07
2019-01-18T08:24:39.809Z,1016.11
2019-01-18T08:25:39.795Z,1016.10
2019-01-18T08:26:39.818Z,1016.14
2019-01-18T08:27:39.777Z,1016.11
2019-01-18T08:28:39.786Z,1016.15
2019-01-18T08:29:39.754Z,1016.18
2019-01-18T08:30:39.742Z,1016.21
2019-01-18T08:31:39.764Z,1016.21
2019-01-18T08:32:39.733Z,1016.20
2019-01-18T08:33:39.713Z,1016.30
2019-01-18T08:34:39.701Z,1016.26
2019-01-18T08:35:39.691Z,1016.30
2019-01-18T08:36:39.731Z,1016.35
2019-01-18T08:37:39.671Z,1016.30
2019-01-18T08:38:39.663Z,1016.34
2019-01-18T08:39:39.649Z,1016.34
2019-01-18T08:40:39.642Z,1016.37
2019-01-18T08:41:39.626Z,1016.39
2019-01-18T08:42:39.642Z,1016.38
2019-01-18T08:43:39.620Z,1016.41
2019-01-18T08:44:39.603Z,1016.45
2019-01-18T08:45:39.613Z,1016.48
2019-01-18T08:46:39.578Z,1016.47
2019-01-18T08:47:39.594Z,1016.50
2019-01-18T08:48:39.556Z,1016.52
2019-01-18T08:49:39.545Z,1016.53
2019-01-18T08:50:39.542Z,1016.54
2019-01-18T08:51:39.526Z,1016.51
2019-01-18T08:52:39.535Z,1016.50
2019-01-18T08:53:39.511Z,1016.53
2019-01-18T08:54:39.493Z,1016.59
2019-01-18T08:55:39.496Z,1016.61
2019-01-18T08:56:39.472Z,1016.61
2019-01-18T08:57:39.465Z,1016.62
2019-01-18T08:58:39.469Z,1016.61
2019-01-18T08:59:39.456Z,1016.65
2019-01-18T09:00:39.430Z,1016.65
2019-01-18T09:01:39.426Z,1016.71
2019-01-18T09:02:39.409Z,1016.70
2019-01-18T09:03:39.420Z,1016.70
2019-01-18T09:04:39.405Z,1016.72
2019-01-18T09:05:39.377Z,1016.74
2019-01-18T09:06:39.371Z,1016.69
2019-01-18T09:07:39.358Z,1016.70
2019-01-18T09:08:39.391Z,1016.74
2019-01-18T09:09:39.340Z,1016.69
2019-01-18T09:10:39.326Z,1016.72
2019-01-18T09:11:39.315Z,1016.77
2019-01-18T09:12:39.308Z,1016.72
2019-01-18T09:13:39.351Z,1016.74
2019-01-18T09:14:39.291Z,1016.73
2019-01-18T09:15:39.275Z,1016.79
2019-01-18T09:16:39.265Z,1016.84
2019-01-18T09:17:39.265Z,1016.78
2019-01-18T09:18:39.241Z,1016.78
2019-01-18T09:19:39.250Z,1016.85
2019-01-18T09:20:39.226Z,1016.88
2019-01-18T09:21:39.210Z,1016.86
2019-01-18T09:22:39.220Z,1016.90
2019-01-18T09:23:39.191Z,1016.92
2019-01-18T09:24:39.209Z,1016.91
2019-01-18T09:25:39.168Z,1016.97
2019-01-18T09:26:39.173Z,1016.96
2019-01-18T09:27:39.150Z,1016.95
2019-01-18T09:28:39.139Z,1016.97
2019-01-18T09:29:39.125Z,1016.98
2019-01-18T09:30:39.139Z,1016.97
2019-01-18T09:31:42.657Z,1016.98
2019-01-18T09:32:39.096Z,1017.07
2019-01-18T09:33:39.087Z,1017.02
2019-01-18T09:34:39.071Z,1017.04
2019-01-18T09:35:39.093Z,1017.00
2019-01-18T09:36:39.055Z,1017.04
2019-01-18T09:37:39.042Z,1017.08
2019-01-18T09:38:39.032Z,1017.11
2019-01-18T09:39:39.033Z,1017.12
2019-01-18T09:40:39.045Z,1017.13
2019-01-18T09:41:46.576Z,1017.12
2019-01-18T09:42:39.053Z,1017.16
2019-01-18T09:43:38.981Z,1017.18
2019-01-18T09:44:39.013Z,1017.20
2019-01-18T09:45:39.019Z,1017.18
2019-01-18T09:46:38.975Z,1017.22
2019-01-18T09:47:38.981Z,1017.20
2019-01-18T09:48:38.976Z,1017.15
2019-01-18T09:49:39.041Z,1017.20
2019-01-18T09:50:38.906Z,1017.21
2019-01-18T09:51:38.923Z,1017.18
2019-01-18T09:52:38.888Z,1017.28
2019-01-18T09:53:38.900Z,1017.18
2019-01-18T09:54:38.863Z,1017.24
2019-01-18T09:55:38.858Z,1017.32
2019-01-18T09:56:46.557Z,1017.29
2019-01-18T09:57:38.888Z,1017.21
2019-01-18T09:58:38.888Z,1017.33
2019-01-18T09:59:38.942Z,1017.32
2019-01-18T10:00:38.816Z,1017.30
2019-01-18T10:01:38.834Z,1017.35
2019-01-18T10:02:38.796Z,1017.35
2019-01-18T10:03:38.777Z,1017.33
2019-01-18T10:04:38.779Z,1017.37
2019-01-18T10:05:38.750Z,1017.40
2019-01-18T10:06:38.747Z,1017.39
2019-01-18T10:07:38.760Z,1017.34
2019-01-18T10:08:38.738Z,1017.30
2019-01-18T10:09:38.711Z,1017.31
2019-01-18T10:10:38.702Z,1017.32
2019-01-18T10:11:38.731Z,1017.28
2019-01-18T10:12:38.724Z,1017.32
2019-01-18T10:13:38.668Z,1017.31
2019-01-18T10:14:38.660Z,1017.33
2019-01-18T10:15:38.659Z,1017.35
2019-01-18T10:16:38.634Z,1017.32
2019-01-18T10:17:38.663Z,1017.37
2019-01-18T10:18:38.621Z,1017.32
2019-01-18T10:19:38.604Z,1017.34
2019-01-18T10:20:38.600Z,1017.37
2019-01-18T10:21:38.599Z,1017.32
2019-01-18T10:22:38.577Z,1017.36
2019-01-18T10:23:38.583Z,1017.45
2019-01-18T10:24:38.558Z,1017.39
2019-01-18T10:25:38.543Z,1017.38
2019-01-18T10:26:38.544Z,1017.45
2019-01-18T10:27:38.528Z,1017.39
2019-01-18T10:28:38.540Z,1017.43
2019-01-18T10:29:38.506Z,1017.41
2019-01-18T10:30:38.523Z,1017.47
2019-01-18T10:31:38.480Z,1017.38
2019-01-18T10:32:38.469Z,1017.41
2019-01-18T10:33:38.459Z,1017.43
2019-01-18T10:34:38.470Z,1017.37
2019-01-18T10:35:38.458Z,1017.41
2019-01-18T10:36:38.432Z,1017.39
2019-01-18T10:37:38.423Z,1017.37
2019-01-18T10:38:46.048Z,1017.33
2019-01-18T10:39:38.513Z,1017.35
2019-01-18T10:40:38.452Z,1017.36
2019-01-18T10:41:39.201Z,1017.40
2019-01-18T10:42:38.374Z,1017.35
2019-01-18T10:43:38.371Z,1017.41
2019-01-18T10:44:38.368Z,1017.45
2019-01-18T10:45:38.353Z,1017.40
2019-01-18T10:46:38.325Z,1017.40
2019-01-18T10:47:38.333Z,1017.43
2019-01-18T10:48:38.309Z,1017.45
2019-01-18T10:49:38.328Z,1017.44
2019-01-18T10:50:38.572Z,1017.41
2019-01-18T10:51:38.280Z,1017.43
2019-01-18T10:52:38.274Z,1017.43
2019-01-18T10:53:38.259Z,1017.50
2019-01-18T10:54:38.283Z,1017.46
2019-01-18T10:55:38.262Z,1017.46
2019-01-18T10:56:38.253Z,1017.45
2019-01-18T10:57:38.216Z,1017.44
2019-01-18T10:58:38.201Z,1017.43
2019-01-18T10:59:38.235Z,1017.41
2019-01-18T11:00:38.202Z,1017.41
2019-01-18T11:01:38.183Z,1017.41
2019-01-18T11:02:38.171Z,1017.37
2019-01-18T11:03:38.153Z,1017.44
2019-01-18T11:04:38.141Z,1017.49
2019-01-18T11:05:38.182Z,1017.47
2019-01-18T11:06:38.127Z,1017.47
2019-01-18T11:07:47.091Z,1017.46
2019-01-18T11:08:38.190Z,1017.46
2019-01-18T11:09:46.842Z,1017.45
2019-01-18T11:10:38.178Z,1017.45
2019-01-18T11:11:48.208Z,1017.43
2019-01-18T11:12:38.197Z,1017.46
2019-01-18T11:13:47.430Z,1017.46
2019-01-18T11:14:38.151Z,1017.45
2019-01-18T11:15:46.797Z,1017.41
2019-01-18T11:16:38.150Z,1017.45
2019-01-18T11:18:47.955Z,1017.30
2019-01-18T11:19:55.870Z,1017.37
2019-01-18T11:20:47.845Z,1017.34
2019-01-18T11:21:56.722Z,1017.33
2019-01-18T11:22:47.841Z,1017.30
2019-01-18T11:23:56.546Z,1017.28
2019-01-18T11:24:47.808Z,1017.27
2019-01-18T11:25:55.386Z,1017.29
2019-01-18T11:26:47.778Z,1017.26
2019-01-18T11:27:57.704Z,1017.27
2019-01-18T11:28:47.808Z,1017.28
2019-01-18T11:29:56.530Z,1017.28
2019-01-18T11:30:47.796Z,1017.25
2019-01-18T11:33:00.212Z,1017.25
2019-01-18T11:34:07.715Z,1017.31
2019-01-18T11:35:00.226Z,1017.22
2019-01-18T11:36:09.066Z,1017.18
2019-01-18T11:37:00.133Z,1017.22
2019-01-18T11:38:08.909Z,1017.18
2019-01-18T11:39:00.047Z,1017.16
2019-01-18T11:40:07.637Z,1017.21
2019-01-18T11:41:00.022Z,1017.22
2019-01-18T11:42:07.596Z,1017.21
2019-01-18T11:43:00.068Z,1017.22
2019-01-18T11:44:07.713Z,1017.23
2019-01-18T11:45:00.016Z,1017.24
2019-01-18T11:47:18.701Z,1017.24
2019-01-18T11:48:27.255Z,1017.20
2019-01-18T11:49:18.647Z,1017.18
2019-01-18T11:50:27.240Z,1017.23
2019-01-18T11:51:18.661Z,1017.22
2019-01-18T11:52:27.606Z,1017.21
2019-01-18T11:53:18.572Z,1017.19
2019-01-18T11:54:27.856Z,1017.14
2019-01-18T11:55:18.583Z,1017.14
2019-01-18T11:56:26.510Z,1017.15
2019-01-18T11:57:18.604Z,1017.13
2019-01-18T11:59:50.561Z,1017.22
2019-01-18T12:02:07.997Z,1017.13
2019-01-18T12:03:16.673Z,1017.11
2019-01-18T12:04:07.884Z,1017.08
2019-01-18T12:06:17.700Z,1017.09
2019-01-18T12:07:25.486Z,1017.11
2019-01-18T12:08:17.617Z,1017.09
2019-01-18T12:09:26.173Z,1017.10
2019-01-18T12:10:17.615Z,1017.11
2019-01-18T12:12:36.927Z,1017.11
2019-01-18T12:14:57.855Z,1017.04
2019-01-18T12:17:11.476Z,1017.02
2019-01-18T12:18:20.058Z,1017.00
2019-01-18T12:19:11.519Z,1016.96
2019-01-18T12:21:43.012Z,1016.96
2019-01-18T12:22:43.491Z,1016.88
2019-01-18T12:23:42.869Z,1016.92
2019-01-18T12:24:53.594Z,1016.94